Terminal Aerodrome Forecast
Issued by NWS Tallahassee, FL

Home | Current Version | Previous Version | Text Only | Print | Product List | Glossary On
Versions: 1 2 3 4 5 6 7 8 9 10 11 12 13
000
FTUS42 KTAE 192300
TAFTLH
TAF
KTLH 192320Z 2000/2024 09005KT P6SM FEW025 SCT040
     FM200900 07005KT 6SM BR FEW007 BKN030
     FM201500 05009KT P6SM FEW010 SCT035 OVC250
     FM201900 04010KT P6SM VCSH FEW030 SCT045 OVC250=

USA.gov is the U.S. government's official web portal to all federal, state and local government web resources and services.